Latest Weather Observations for Nowra

IDN60901

Issued at 5:41 am EDT Friday 24 November 2017 (issued every 10 minutes, with the page automatically refreshed every 10 minutes)

About weather observations | Map of Canberra area stations | Latest observations for Canberra area | Other Formats
Station Details ID: 068072 Name: NOWRA RAN AIR STATION AWS Lat: -34.95 Lon: 150.54 Height: 109.0 m
Data from the previous 72 hours. | See also: Recent months at Nowra
Date/Time
EDT
Temp
°C
App
Temp
°C
Dew
Point
°C
Rel
Hum
%
Delta-T
°C
Wind Press
QNH
hPa
Press
MSL
hPa
Rain since
9am
mm
Dir  Spd
km/h
Gust
km/h
Spd
kts
Gust
kts
24/05:30am 14.1 12.9 13.9 99 0.1 WNW 13 15 7 8 1015.2 1014.9 1.0
24/05:00am 14.2 13.6 13.6 96 0.3 NW 9 11 5 6 1014.8 1014.5 1.0
24/04:30am 14.4 13.8 13.6 95 0.4 NW 9 11 5 6 1014.5 1014.2 1.0
24/04:00am 14.5 14.0 13.9 96 0.3 WNW 9 11 5 6 1014.8 1014.5 1.0
24/03:30am 14.6 14.2 14.0 96 0.3 WNW 9 11 5 6 1014.8 1014.5 1.0
24/03:00am 14.9 14.1 14.1 95 0.5 WNW 11 15 6 8 1014.7 1014.4 1.0
24/02:30am 15.0 13.9 14.2 95 0.5 WNW 13 17 7 9 1014.7 1014.4 1.0
24/02:00am 15.1 14.4 14.3 95 0.5 WNW 11 15 6 8 1014.9 1014.6 1.0
24/01:30am 15.1 14.4 14.3 95 0.5 WNW 11 13 6 7 1015.1 1014.8 1.0
24/01:00am 14.7 16.1 14.4 98 0.2 CALM 0 0 0 0 1015.4 1015.1 1.0
24/12:30am 15.1 16.5 14.3 95 0.5 CALM 0 0 0 0 1015.6 1015.3 1.0
24/12:00am 15.4 16.4 14.3 93 0.6 N 2 6 1 3 1015.6 1015.3 1.0
 
Date/Time
EDT
Temp
°C
App
Temp
°C
Dew
Point
°C
Rel
Hum
%
Delta-T
°C
Wind Press
QNH
hPa
Press
MSL
hPa
Rain since
9am
mm
Dir  Spd
km/h
Gust
km/h
Spd
kts
Gust
kts
23/11:30pm 15.9 16.1 14.1 89 1.0 NNW 6 7 3 4 1015.7 1015.4 1.0
23/11:00pm 17.0 17.2 14.8 87 1.3 W 7 11 4 6 1016.0 1015.7 1.0
23/10:30pm 17.0 17.5 15.0 88 1.2 NW 6 9 3 5 1016.1 1015.8 1.0
23/10:00pm 17.4 16.6 15.2 87 1.3 NW 13 19 7 10 1016.2 1015.9 1.0
23/09:30pm 17.9 16.9 15.5 86 1.4 NW 15 20 8 11 1016.4 1016.1 1.0
23/09:00pm 17.8 17.2 15.6 87 1.3 NW 13 17 7 9 1016.0 1015.7 1.0
23/08:30pm 17.8 17.3 16.0 89 1.1 WNW 13 17 7 9 1015.8 1015.5 1.0
23/08:00pm 18.1 17.4 16.3 89 1.1 NW 15 20 8 11 1015.7 1015.4 1.0
23/07:30pm 18.7 19.8 16.7 88 1.2 NE 6 9 3 5 1015.4 1015.1 1.0
23/07:00pm 18.5 19.0 16.5 88 1.2 S 9 13 5 7 1015.4 1015.1 1.0
23/06:30pm 18.6 17.3 17.3 92 0.8 SSW 20 26 11 14 1015.5 1015.2 1.0
23/06:00pm 19.3 19.4 18.3 94 0.6 SSW 15 20 8 11 1015.1 1014.8 0.8
23/05:30pm 19.6 18.3 16.8 84 1.7 ESE 19 24 10 13 1014.1 1013.8 0.6
23/05:19pm 20.4 20.1 16.4 78 2.4 SE 13 15 7 8 1014.6 1014.3 0.0
23/05:00pm 21.3 20.0 14.9 67 3.8 SSE 15 17 8 9 1014.5 1014.2 0.0
23/04:47pm 21.7 20.8 14.8 65 4.1 S 13 17 7 9 1014.3 1014.0 0.0
23/04:30pm 21.7 20.9 15.1 66 3.9 E 13 20 7 11 1013.9 1013.6 0.0
23/04:00pm 23.1 20.8 14.7 59 5.0 ENE 20 30 11 16 1013.3 1013.0 0.0
23/03:30pm 24.2 19.7 14.9 56 5.6 ENE 32 41 17 22 1012.5 1012.3 0.0
23/03:00pm 25.7 21.4 14.5 50 6.7 ENE 30 41 16 22 1013.1 1012.8 0.0
23/02:30pm 25.8 22.0 15.8 54 6.1 ENE 30 37 16 20 1013.6 1013.3 0.0
23/02:00pm 26.1 23.0 15.5 52 6.5 ENE 26 35 14 19 1013.8 1013.5 0.0
23/01:30pm 25.5 22.5 15.8 55 5.9 E 26 32 14 17 1014.5 1014.2 0.0
23/01:00pm 26.2 24.5 16.2 54 6.2 ENE 20 26 11 14 1014.9 1014.6 0.0
23/12:30pm 25.4 22.9 15.1 53 6.2 E 22 32 12 17 1015.5 1015.2 0.0
23/12:00pm 25.4 23.7 15.7 55 5.9 ENE 19 32 10 17 1015.7 1015.4 0.0
23/11:30am 24.8 22.6 14.3 52 6.2 ENE 19 24 10 13 1016.1 1015.8 0.0
23/11:00am 24.0 22.7 13.8 53 6.0 NNE 13 22 7 12 1016.4 1016.1 0.0
23/10:30am 22.9 22.2 13.1 54 5.7 N 9 22 5 12 1016.7 1016.4 0.0
23/10:00am 22.4 20.1 12.9 55 5.5 NE 17 24 9 13 1016.8 1016.5 0.0
23/09:30am 22.1 22.0 14.0 60 4.7 N 7 13 4 7 1017.0 1016.7 0.0
23/09:00am 21.0 20.4 13.4 62 4.4 NNE 9 13 5 7 1017.2 1016.9 0.0
23/08:30am 19.9 18.8 13.1 65 3.9 NW 11 15 6 8 1017.4 1017.1 0.0
23/08:00am 18.6 18.1 13.7 73 2.8 NNW 9 13 5 7 1017.5 1017.2 0.0
23/07:30am 17.1 16.8 14.4 84 1.6 NW 9 13 5 7 1017.3 1017.0 0.0
23/07:00am 15.4 15.8 14.8 96 0.3 NW 6 9 3 5 1017.2 1016.9 0.0
23/06:30am 14.1 14.2 13.9 99 0.1 WNW 6 9 3 5 1017.2 1016.9 0.0
23/06:00am 13.0 13.6 13.0 100 0.0 WNW 2 6 1 3 1017.0 1016.7 0.0
23/05:30am 12.3 11.9 12.3 100 0.0 NW 6 7 3 4 1016.7 1016.4 0.0
23/05:00am 12.2 12.8 12.0 99 0.1 CALM 0 0 0 0 1016.5 1016.2 0.0
23/04:30am 12.3 13.0 12.1 99 0.1 CALM 0 0 0 0 1016.4 1016.1 0.0
23/04:00am 12.9 12.4 12.7 99 0.1 W 7 11 4 6 1016.5 1016.2 0.0
23/03:30am 12.7 13.5 12.5 99 0.1 CALM 0 0 0 0 1016.6 1016.3 0.0
23/03:00am 12.5 13.2 12.3 99 0.1 CALM 0 0 0 0 1016.8 1016.5 0.0
23/02:30am 13.0 13.9 12.8 99 0.1 CALM 0 2 0 1 1017.0 1016.7 0.0
23/02:00am 12.7 11.7 12.4 98 0.2 W 9 11 5 6 1017.0 1016.7 0.0
23/01:30am 13.0 13.8 12.7 98 0.2 CALM 0 0 0 0 1017.1 1016.8 0.0
23/01:00am 13.8 13.5 13.3 97 0.3 W 7 9 4 5 1017.6 1017.3 0.0
23/12:30am 14.5 14.7 14.3 99 0.1 W 6 7 3 4 1017.8 1017.5 0.0
23/12:00am 14.0 14.8 12.6 91 0.8 CALM 0 0 0 0 1018.2 1017.9 0.0
 
Date/Time
EDT
Temp
°C
App
Temp
°C
Dew
Point
°C
Rel
Hum
%
Delta-T
°C
Wind Press
QNH
hPa
Press
MSL
hPa
Rain since
9am
mm
Dir  Spd
km/h
Gust
km/h
Spd
kts
Gust
kts
22/11:30pm 16.0 16.4 13.8 87 1.2 WNW 4 7 2 4 1018.3 1018.0 0.0
22/11:00pm 16.8 17.0 14.6 87 1.3 N 7 9 4 5 1018.4 1018.1 0.0
22/10:30pm 16.7 15.7 14.5 87 1.3 NE 13 15 7 8 1018.5 1018.2 0.0
22/10:00pm 17.2 15.5 14.7 85 1.4 NE 17 20 9 11 1018.5 1018.2 0.0
22/09:30pm 17.4 16.4 14.5 83 1.7 NNE 13 19 7 10 1018.3 1018.0 0.0
22/09:00pm 17.7 16.0 14.8 83 1.7 NE 17 20 9 11 1018.2 1017.9 0.0
22/08:30pm 18.0 16.1 14.3 79 2.1 NE 17 20 9 11 1018.2 1017.9 0.0
22/08:00pm 18.5 16.2 14.0 75 2.6 NE 19 26 10 14 1017.9 1017.6 0.0
22/07:30pm 19.0 16.3 13.4 70 3.2 ENE 20 30 11 16 1017.8 1017.5 0.0
22/07:00pm 19.5 16.2 14.1 71 3.1 ENE 24 33 13 18 1017.6 1017.3 0.0
22/06:30pm 20.4 17.1 14.1 67 3.7 ENE 24 30 13 16 1017.4 1017.1 0.0
22/06:00pm 20.8 16.8 14.0 65 3.9 ENE 28 39 15 21 1017.1 1016.8 0.0
22/05:30pm 21.1 16.6 13.8 63 4.2 ENE 30 39 16 21 1017.1 1016.8 0.0
22/05:00pm 21.5 16.9 13.4 60 4.7 ENE 30 35 16 19 1017.5 1017.2 0.0
22/04:30pm 22.1 18.6 13.5 58 5.0 ENE 24 32 13 17 1017.6 1017.3 0.0
22/04:00pm 22.5 19.1 13.8 58 5.1 NE 24 35 13 19 1017.8 1017.5 0.0
22/03:30pm 22.5 18.7 13.6 57 5.2 NE 26 33 14 18 1018.1 1017.8 0.0
22/03:00pm 23.5 19.9 14.2 56 5.5 ENE 26 39 14 21 1018.3 1018.0 0.0
22/02:30pm 23.2 19.7 14.5 58 5.2 NE 26 37 14 20 1018.7 1018.4 0.0
22/02:00pm 22.3 18.6 13.9 59 4.9 ENE 26 37 14 20 1018.9 1018.6 0.0
22/01:30pm 22.5 20.0 14.1 59 4.9 ENE 20 37 11 20 1019.2 1018.9 0.0
22/01:00pm 22.4 19.5 12.9 55 5.4 NE 20 33 11 18 1019.4 1019.1 0.0
22/12:30pm 23.4 21.1 13.0 52 6.0 NE 17 26 9 14 1019.7 1019.4 0.0
22/12:00pm 23.1 20.8 13.0 53 5.8 ENE 17 24 9 13 1019.9 1019.6 0.0
22/11:30am 22.2 20.5 12.5 54 5.5 NE 13 22 7 12 1020.3 1020.0 0.0
22/11:00am 21.7 20.1 12.8 57 5.1 NNE 13 20 7 11 1020.7 1020.5 0.0
22/10:30am 21.1 20.6 12.5 58 4.9 E 7 13 4 7 1020.9 1020.7 0.0
22/10:00am 21.1 20.9 13.5 62 4.4 NE 7 15 4 8 1021.1 1020.9 0.0
22/09:30am 19.8 20.5 13.5 67 3.6 ENE 2 9 1 5 1021.4 1021.2 0.0
22/09:00am 18.4 19.5 13.5 73 2.8 CALM 0 0 0 0 1021.6 1021.4 0.0
22/08:30am 17.4 18.0 13.1 76 2.4 NNW 2 7 1 4 1021.8 1021.6 0.0
22/08:00am 16.8 17.0 12.9 78 2.2 WNW 4 9 2 5 1021.6 1021.4 0.0
22/07:30am 15.5 15.4 13.3 87 1.2 SSW 6 9 3 5 1021.4 1021.2 0.0
22/07:00am 14.6 14.1 12.6 88 1.1 WNW 7 11 4 6 1021.1 1020.9 0.0
22/06:30am 14.8 14.5 13.2 90 0.9 WSW 7 9 4 5 1021.1 1020.9 0.0
22/06:00am 14.0 13.3 13.2 95 0.4 WSW 9 11 5 6 1021.0 1020.8 0.0
22/05:30am 12.9 12.0 12.6 98 0.2 NW 9 11 5 6 1021.0 1020.8 0.0
22/05:00am 12.5 12.0 12.5 100 0.0 WNW 7 11 4 6 1020.9 1020.7 0.0
22/04:30am 11.1 11.4 10.9 99 0.1 CALM 0 0 0 0 1020.6 1020.4 0.0
22/04:00am 11.0 11.2 10.5 97 0.3 CALM 0 0 0 0 1020.7 1020.5 0.0
22/03:30am 11.1 10.0 10.6 97 0.3 W 7 9 4 5 1020.8 1020.6 0.0
22/03:00am 11.3 10.2 10.7 96 0.3 W 7 9 4 5 1020.9 1020.7 0.0
22/02:30am 11.8 11.1 11.5 98 0.2 W 6 9 3 5 1021.1 1020.9 0.0
22/02:00am 12.1 11.0 11.9 99 0.1 W 9 11 5 6 1021.2 1021.0 0.0
22/01:30am 11.9 11.0 11.4 97 0.3 WSW 7 9 4 5 1021.4 1021.2 0.0
22/01:00am 12.2 12.4 10.6 90 0.8 CALM 0 7 0 4 1021.7 1021.5 0.0
22/12:30am 12.8 12.9 11.5 92 0.7 SW 2 9 1 5 1021.9 1021.7 0.0
22/12:00am 13.1 12.6 12.2 94 0.5 WSW 6 7 3 4 1022.3 1022.1 0.0
 
Date/Time
EDT
Temp
°C
App
Temp
°C
Dew
Point
°C
Rel
Hum
%
Delta-T
°C
Wind Press
QNH
hPa
Press
MSL
hPa
Rain since
9am
mm
Dir  Spd
km/h
Gust
km/h
Spd
kts
Gust
kts
21/11:30pm 13.2 12.5 11.9 92 0.7 WSW 7 9 4 5 1022.5 1022.3 0.0
21/11:00pm 14.3 13.8 12.0 86 1.2 WSW 6 7 3 4 1022.8 1022.5 0.0
21/10:30pm 14.7 15.4 12.2 85 1.4 CALM 0 4 0 2 1023.1 1022.8 0.0
21/10:00pm 15.1 14.7 12.4 84 1.5 SSW 6 7 3 4 1023.3 1023.0 0.0
21/09:30pm 16.2 15.6 12.2 77 2.2 ESE 7 9 4 5 1023.2 1022.9 0.0
21/09:00pm 16.5 15.4 12.1 75 2.4 ENE 9 13 5 7 1023.0 1022.7 0.0
21/08:30pm 16.9 14.9 11.6 71 2.9 ENE 13 15 7 8 1022.9 1022.6 0.0
21/08:00pm 17.3 15.6 11.3 68 3.3 E 11 15 6 8 1022.9 1022.6 0.0
21/07:30pm 18.0 15.5 11.1 64 3.8 ENE 15 20 8 11 1022.6 1022.4 0.0
21/07:00pm 18.9 15.7 11.2 61 4.2 E 19 26 10 14 1022.4 1022.2 0.0
21/06:30pm 19.7 15.9 11.2 58 4.7 ENE 22 30 12 16 1022.3 1022.1 0.0
21/06:00pm 20.3 16.1 11.2 56 5.0 ENE 24 33 13 18 1022.2 1022.0 0.0
21/05:30pm 20.4 16.6 11.3 56 5.0 ENE 22 32 12 17 1022.1 1021.9 0.0
21/05:00pm 21.5 17.8 11.5 53 5.6 ENE 22 32 12 17 1022.1 1021.9 0.0
21/04:30pm 21.4 17.4 10.6 50 5.9 ENE 22 32 12 17 1022.1 1021.9 0.0
21/04:00pm 22.1 18.2 10.9 49 6.2 ENE 22 30 12 16 1022.2 1022.0 0.0
21/03:30pm 22.4 18.8 10.5 47 6.6 ENE 20 32 11 17 1022.3 1022.1 0.0
21/03:00pm 22.1 17.9 9.6 45 6.7 NE 22 32 12 17 1022.5 1022.3 0.0
21/02:30pm 22.1 18.0 8.6 42 7.2 NE 20 30 11 16 1023.0 1022.7 0.0
21/02:00pm 23.4 20.4 9.4 41 7.6 E 15 33 8 18 1023.2 1022.9 0.0
21/01:30pm 22.0 18.3 7.8 40 7.4 ENE 17 28 9 15 1023.6 1023.3 0.0
21/01:00pm 22.4 18.9 8.9 42 7.2 NE 17 32 9 17 1024.1 1023.8 0.0
21/12:30pm 22.1 18.6 8.6 42 7.2 E 17 26 9 14 1024.5 1024.2 0.0
21/12:00pm 22.0 18.3 7.8 40 7.4 ENE 17 30 9 16 1024.9 1024.6 0.0
21/11:30am 21.0 17.5 8.6 45 6.6 NE 17 22 9 12 1025.0 1024.7 0.0
21/11:00am 20.9 18.5 8.5 45 6.5 E 11 26 6 14 1025.0 1024.7 0.0
21/10:30am 20.4 18.2 9.3 49 5.9 ENE 11 17 6 9 1025.0 1024.7 0.0
21/10:00am 20.2 17.6 9.5 50 5.7 NE 13 19 7 10 1025.1 1024.8 0.0
21/09:30am 19.6 17.4 9.2 51 5.5 ENE 11 13 6 7 1025.2 1024.9 0.0
21/09:00am 18.8 16.9 10.4 58 4.5 NE 11 22 6 12 1025.5 1025.2 0.0
21/08:30am 18.4 17.2 9.5 56 4.7 E 6 7 3 4 1025.4 1025.1 0.0
21/08:00am 17.8 18.8 13.1 74 2.6 CALM 0 0 0 0 1025.2 1024.9 0.0
21/07:30am 17.0 18.2 13.9 82 1.8 CALM 0 0 0 0 1024.9 1024.6 0.0
21/07:00am 15.9 17.3 14.4 91 0.9 CALM 0 0 0 0 1024.8 1024.5 0.0
21/06:30am 14.8 16.3 14.6 99 0.1 CALM 0 2 0 1 1024.7 1024.4 0.0
21/06:00am 14.4 14.5 13.8 96 0.3 WSW 6 7 3 4 1024.6 1024.3 0.0

Latest Capital City Observations: Canberra | Sydney | Melbourne | Brisbane | Adelaide | Perth | Hobart | Darwin

Other Formats:

Comma delimited format used in spreadsheet applications
http://www.bom.gov.au/fwo/IDN60903/IDN60903.94750.axf

JavaScript Object Notation format (JSON) in row-major order
http://www.bom.gov.au/fwo/IDN60903/IDN60903.94750.json